Welcome to Northern Hawkes Bay. New Zealand.
PWS Header
      nz Flag



Hit Counter


W3C Valid W3C Valid logo


    Wairoa

Select any of the Stations below to visit their websites.










Historic Data from Weather Underground
Select the location of interest below. Wairoa is the default. Please have patience, this Data is slow to load in.
Northern Hawkes Bay Historical Data
Daily Summary for June 11, 2017 Units:  Metric    English   Both
« Previous Day
Next Day »
Daily Weekly Monthly Yearly Custom
  High: Low: Average:
Temperature: 16.2 °C 5.4 °C 10.4 °C
Dew Point: 7.2 °C 5.3 °C 6.4 °C
Humidity: 99% 50% 79%
Wind Speed: 14.8km/h 0.0km/h 5.6km/h
Wind Gust: 19.5km/h - -
Wind- - WSW
Pressure: 1022.2 hPa 1014.8 hPa -
Precipitation: 0.0 mm    
Historical Graphs
 
 
Tabular Data for June 11, 2017
Time Temperature Dew Point Pressure Wind Wind Speed Wind Gust Humidity Rainfall Rate (Hourly) solar
00:05 16.2 °C 5.8 °C 1016.1 hPa NW 6.1 km/h 9.7 km/h 50% 0.0 mm 148 W/m2
00:35 15.6 °C 6.3 °C 1015.8 hPa North 6.1 km/h 9.7 km/h 54% 0.0 mm 92 W/m2
01:05 15.0 °C 6.0 °C 1015.8 hPa North 8.7 km/h 11.1 km/h 55% 0.0 mm 77 W/m2
01:35 14.3 °C 6.2 °C 1015.8 hPa NNW 7.2 km/h 12.2 km/h 58% 0.0 mm 73 W/m2
02:05 14.1 °C 6.2 °C 1015.8 hPa North 8.7 km/h 11.1 km/h 59% 0.0 mm 37 W/m2
02:35 13.1 °C 6.7 °C 1015.5 hPa North 8.7 km/h 11.1 km/h 65% 0.0 mm 11 W/m2
03:05 12.6 °C 6.6 °C 1015.5 hPa West 11.1 km/h 14.8 km/h 67% 0.0 mm 0 W/m2
04:05 12.3 °C 7.0 °C 1015.8 hPa North 6.1 km/h 8.7 km/h 70% 0.0 mm 0 W/m2
04:35 12.2 °C 7.1 °C 1016.1 hPa North 7.2 km/h 11.1 km/h 71% 0.0 mm 0 W/m2
05:05 11.9 °C 7.2 °C 1016.1 hPa WNW 6.1 km/h 9.7 km/h 73% 0.0 mm 0 W/m2
05:35 11.9 °C 7.2 °C 1016.1 hPa SW 7.2 km/h 9.7 km/h 73% 0.0 mm 0 W/m2
06:05 11.6 °C 7.1 °C 1016.1 hPa North 7.2 km/h 11.1 km/h 74% 0.0 mm 0 W/m2
06:35 11.9 °C 7.2 °C 1015.8 hPa NE 8.7 km/h 13.4 km/h 73% 0.0 mm 0 W/m2
07:05 12.4 °C 6.9 °C 1015.8 hPa NE 6.1 km/h 12.2 km/h 69% 0.0 mm 0 W/m2
07:35 12.9 °C 6.9 °C 1015.5 hPa North 8.7 km/h 13.4 km/h 67% 0.0 mm 0 W/m2
08:05 11.9 °C 7.0 °C 1015.8 hPa NW 6.1 km/h 9.7 km/h 72% 0.0 mm 0 W/m2
08:35 10.9 °C 6.7 °C 1015.8 hPa North 5.0 km/h 7.2 km/h 75% 0.0 mm 0 W/m2
09:05 10.8 °C 6.9 °C 1015.5 hPa North 9.7 km/h 13.4 km/h 77% 0.0 mm 0 W/m2
09:35 11.0 °C 6.7 °C 1015.8 hPa North 6.1 km/h 9.7 km/h 75% 0.0 mm 0 W/m2
10:35 10.8 °C 6.6 °C 1015.5 hPa North 6.1 km/h 9.7 km/h 75% 0.0 mm 0 W/m2
11:05 10.8 °C 6.9 °C 1015.1 hPa North 8.7 km/h 11.1 km/h 77% 0.0 mm 0 W/m2
11:35 10.5 °C 6.6 °C 1014.8 hPa North 9.7 km/h 12.2 km/h 77% 0.0 mm 0 W/m2
12:05 9.6 °C 6.5 °C 1014.8 hPa NE 7.2 km/h 8.7 km/h 81% 0.0 mm 0 W/m2
12:35 9.0 °C 6.4 °C 1014.8 hPa North 7.2 km/h 9.7 km/h 84% 0.0 mm 0 W/m2
13:14 14.7 °C 6.0 °C 1017.8 hPa NNW 12.2 km/h 18.3 km/h 56% 0.0 mm 58 W/m2
13:19 14.8 °C 6.4 °C 1020.5 hPa West 8.7 km/h 18.3 km/h 57% 0.0 mm 59 W/m2
13:24 14.9 °C 6.2 °C 1020.5 hPa West 12.2 km/h 18.3 km/h 56% 0.0 mm 60 W/m2
13:29 15.0 °C 6.3 °C 1020.5 hPa West 9.7 km/h 18.3 km/h 56% 0.0 mm 62 W/m2
13:34 15.3 °C 6.6 °C 1020.5 hPa WSW 12.2 km/h 18.3 km/h 56% 0.0 mm 65 W/m2
13:44 15.3 °C 6.8 °C 1020.5 hPa West 14.8 km/h 17.2 km/h 57% 0.0 mm 68 W/m2
13:49 15.3 °C 7.1 °C 1020.5 hPa WSW 7.2 km/h 15.8 km/h 58% 0.0 mm 74 W/m2
13:54 15.6 °C 7.1 °C 1020.5 hPa WSW 12.2 km/h 17.2 km/h 57% 0.0 mm 103 W/m2
13:59 15.3 °C 6.6 °C 1020.5 hPa WSW 8.7 km/h 17.2 km/h 56% 0.0 mm 163 W/m2
14:04 15.5 °C 7.0 °C 1020.5 hPa WSW 3.5 km/h 17.2 km/h 57% 0.0 mm 209 W/m2
14:09 16.0 °C 7.2 °C 1020.5 hPa WSW 6.1 km/h 15.8 km/h 56% 0.0 mm 245 W/m2
14:19 15.8 °C 6.5 °C 1020.2 hPa West 8.7 km/h 14.8 km/h 54% 0.0 mm 243 W/m2
14:24 15.8 °C 6.5 °C 1020.2 hPa WSW 6.1 km/h 13.4 km/h 54% 0.0 mm 237 W/m2
14:29 15.8 °C 6.5 °C 1020.2 hPa WSW 11.1 km/h 13.4 km/h 54% 0.0 mm 233 W/m2
14:34 15.8 °C 6.8 °C 1020.2 hPa SW 8.7 km/h 13.4 km/h 55% 0.0 mm 229 W/m2
14:39 15.7 °C 6.4 °C 1020.2 hPa SW 14.8 km/h 19.5 km/h 54% 0.0 mm 221 W/m2
14:44 15.7 °C 6.7 °C 1020.2 hPa WSW 8.7 km/h 19.5 km/h 55% 0.0 mm 216 W/m2
14:49 15.6 °C 6.6 °C 1020.2 hPa WSW 5.0 km/h 18.3 km/h 55% 0.0 mm 209 W/m2
14:54 15.8 °C 6.8 °C 1020.2 hPa WSW 8.7 km/h 12.2 km/h 55% 0.0 mm 202 W/m2
14:59 15.9 °C 6.6 °C 1020.2 hPa SW 8.7 km/h 12.2 km/h 54% 0.0 mm 193 W/m2
15:04 15.7 °C 6.4 °C 1020.2 hPa SW 7.2 km/h 13.4 km/h 54% 0.0 mm 182 W/m2
15:09 15.7 °C 6.4 °C 1020.2 hPa WSW 5.0 km/h 13.4 km/h 54% 0.0 mm 166 W/m2
15:14 15.8 °C 6.5 °C 1020.5 hPa WSW 5.0 km/h 12.2 km/h 54% 0.0 mm 145 W/m2
15:19 16.0 °C 6.4 °C 1020.2 hPa SW 6.1 km/h 11.1 km/h 53% 0.0 mm 133 W/m2
15:24 15.9 °C 6.6 °C 1020.2 hPa SW 6.1 km/h 9.7 km/h 54% 0.0 mm 125 W/m2
15:29 16.0 °C 6.4 °C 1020.2 hPa WSW 3.5 km/h 9.7 km/h 53% 0.0 mm 117 W/m2
15:34 16.0 °C 6.4 °C 1020.5 hPa WSW 9.7 km/h 12.2 km/h 53% 0.0 mm 108 W/m2
15:39 15.7 °C 6.4 °C 1020.2 hPa WSW 7.2 km/h 12.2 km/h 54% 0.0 mm 99 W/m2
15:44 15.7 °C 6.4 °C 1020.2 hPa WSW 6.1 km/h 12.2 km/h 54% 0.0 mm 90 W/m2
15:49 15.7 °C 6.7 °C 1020.2 hPa WSW 3.5 km/h 11.1 km/h 55% 0.0 mm 81 W/m2
15:54 15.8 °C 6.8 °C 1020.2 hPa WSW 2.6 km/h 8.7 km/h 55% 0.0 mm 71 W/m2
15:59 16.0 °C 6.7 °C 1020.2 hPa West 3.5 km/h 7.2 km/h 54% 0.0 mm 62 W/m2
16:04 16.1 °C 6.8 °C 1020.2 hPa West 3.5 km/h 9.7 km/h 54% 0.0 mm 53 W/m2
16:09 15.9 °C 6.9 °C 1020.2 hPa West 1.1 km/h 9.7 km/h 55% 0.0 mm 45 W/m2
16:14 16.0 °C 6.9 °C 1020.2 hPa West 2.6 km/h 7.2 km/h 55% 0.0 mm 38 W/m2
16:19 16.0 °C 6.9 °C 1020.2 hPa West 1.1 km/h 5.0 km/h 55% 0.0 mm 32 W/m2
16:24 15.8 °C 7.1 °C 1020.2 hPa West 1.1 km/h 5.0 km/h 56% 0.0 mm 26 W/m2
16:29 15.7 °C 6.9 °C 1020.5 hPa West 2.6 km/h 5.0 km/h 56% 0.0 mm 21 W/m2
16:34 15.4 °C 6.7 °C 1020.5 hPa WNW 2.6 km/h 5.0 km/h 56% 0.0 mm 17 W/m2
16:40 14.9 °C 6.7 °C 1020.5 hPa Calm   5.0 km/h 58% 0.0 mm 10 W/m2
16:45 14.7 °C 6.8 °C 1020.5 hPa Calm   5.0 km/h 59% 0.0 mm 5 W/m2
16:50 13.9 °C 6.5 °C 1020.5 hPa Calm   2.6 km/h 61% 0.0 mm 2 W/m2
16:55 13.0 °C 6.1 °C 1020.9 hPa NW 1.1 km/h 2.6 km/h 63% 0.0 mm 0 W/m2
17:00 12.4 °C 6.0 °C 1020.9 hPa Calm   2.6 km/h 65% 0.0 mm 0 W/m2
17:05 11.8 °C 5.9 °C 1020.9 hPa Calm   2.6 km/h 67% 0.0 mm 0 W/m2
17:10 11.4 °C 6.1 °C 1020.5 hPa Calm   2.6 km/h 70% 0.0 mm 0 W/m2
17:15 11.0 °C 6.2 °C 1020.9 hPa North 1.1 km/h 2.6 km/h 72% 0.0 mm 0 W/m2
17:20 10.9 °C 6.7 °C 1020.5 hPa North 2.6 km/h 3.5 km/h 75% 0.0 mm 0 W/m2
17:26 10.6 °C 6.6 °C 1020.9 hPa North 2.6 km/h 3.5 km/h 76% 0.0 mm 0 W/m2
17:31 10.4 °C 6.6 °C 1020.9 hPa North 1.1 km/h 3.5 km/h 77% 0.0 mm 0 W/m2
17:36 10.3 °C 6.6 °C 1020.9 hPa North 2.6 km/h 5.0 km/h 78% 0.0 mm 0 W/m2
17:41 10.3 °C 6.8 °C 1020.9 hPa North 2.6 km/h 5.0 km/h 79% 0.0 mm 0 W/m2
17:46 10.1 °C 6.6 °C 1020.9 hPa Calm   5.0 km/h 79% 0.0 mm 0 W/m2
17:51 9.9 °C 6.8 °C 1020.9 hPa NNE 1.1 km/h 3.5 km/h 81% 0.0 mm 0 W/m2
17:56 9.7 °C 6.9 °C 1020.9 hPa Calm   3.5 km/h 83% 0.0 mm 0 W/m2
18:06 9.3 °C 6.7 °C 1021.2 hPa North 2.6 km/h 5.0 km/h 84% 0.0 mm 0 W/m2
18:11 8.9 °C 6.7 °C 1021.2 hPa North 2.6 km/h 6.1 km/h 86% 0.0 mm 0 W/m2
18:16 8.5 °C 6.4 °C 1020.9 hPa NNE 2.6 km/h 6.1 km/h 87% 0.0 mm 0 W/m2
18:21 8.3 °C 6.6 °C 1020.9 hPa North 1.1 km/h 5.0 km/h 89% 0.0 mm 0 W/m2
18:26 8.2 °C 6.7 °C 1021.2 hPa North 2.6 km/h 5.0 km/h 90% 0.0 mm 0 W/m2
18:31 8.0 °C 6.6 °C 1021.2 hPa NW 3.5 km/h 6.1 km/h 91% 0.0 mm 0 W/m2
18:36 7.7 °C 6.5 °C 1021.6 hPa NW 5.0 km/h 6.1 km/h 92% 0.0 mm 0 W/m2
18:41 7.6 °C 6.6 °C 1021.6 hPa NNW 3.5 km/h 6.1 km/h 93% 0.0 mm 0 W/m2
18:46 7.5 °C 6.6 °C 1021.6 hPa North 3.5 km/h 6.1 km/h 94% 0.0 mm 0 W/m2
18:51 7.4 °C 6.7 °C 1021.6 hPa North 2.6 km/h 6.1 km/h 95% 0.0 mm 0 W/m2
18:56 7.3 °C 6.6 °C 1021.6 hPa NNW 2.6 km/h 6.1 km/h 95% 0.0 mm 0 W/m2
19:01 7.2 °C 6.4 °C 1021.6 hPa NNW 2.6 km/h 6.1 km/h 95% 0.0 mm 0 W/m2
19:06 7.1 °C 6.5 °C 1021.6 hPa NW 3.5 km/h 5.0 km/h 96% 0.0 mm 0 W/m2
19:11 7.0 °C 6.4 °C 1021.6 hPa NNW 3.5 km/h 6.1 km/h 96% 0.0 mm 0 W/m2
19:16 7.0 °C 6.6 °C 1021.6 hPa NNW 2.6 km/h 6.1 km/h 97% 0.0 mm 0 W/m2
19:21 7.0 °C 6.6 °C 1021.6 hPa NNW 2.6 km/h 6.1 km/h 97% 0.0 mm 0 W/m2
19:26 6.9 °C 6.6 °C 1021.9 hPa NW 5.0 km/h 6.1 km/h 98% 0.0 mm 0 W/m2
19:31 7.1 °C 6.7 °C 1021.9 hPa NW 6.1 km/h 9.7 km/h 97% 0.0 mm 0 W/m2
19:36 7.1 °C 6.7 °C 1021.9 hPa NW 5.0 km/h 9.7 km/h 97% 0.0 mm 0 W/m2
19:41 7.1 °C 6.7 °C 1021.6 hPa NNW 5.0 km/h 8.7 km/h 97% 0.0 mm 0 W/m2
19:46 7.1 °C 6.7 °C 1021.9 hPa NW 5.0 km/h 8.7 km/h 97% 0.0 mm 0 W/m2
19:51 7.0 °C 6.6 °C 1021.9 hPa NW 6.1 km/h 8.7 km/h 97% 0.0 mm 0 W/m2
19:55 6.9 °C 6.6 °C 1021.9 hPa NW 6.1 km/h 8.7 km/h 98% 0.0 mm 0 W/m2
20:01 6.8 °C 6.5 °C 1021.9 hPa NW 6.1 km/h 9.7 km/h 98% 0.0 mm 0 W/m2
20:06 6.8 °C 6.5 °C 1021.9 hPa NW 6.1 km/h 9.7 km/h 98% 0.0 mm 0 W/m2
20:11 6.7 °C 6.4 °C 1021.6 hPa NW 6.1 km/h 8.7 km/h 98% 0.0 mm 0 W/m2
20:15 6.7 °C 6.4 °C 1021.9 hPa NW 6.1 km/h 9.7 km/h 98% 0.0 mm 0 W/m2
20:21 6.7 °C 6.4 °C 1021.9 hPa NW 6.1 km/h 9.7 km/h 98% 0.0 mm 0 W/m2
20:26 6.7 °C 6.4 °C 1021.9 hPa NW 6.1 km/h 11.1 km/h 98% 0.0 mm 0 W/m2
20:30 6.6 °C 6.3 °C 1021.9 hPa NW 6.1 km/h 11.1 km/h 98% 0.0 mm 0 W/m2
20:36 6.6 °C 6.3 °C 1021.9 hPa NW 5.0 km/h 9.7 km/h 98% 0.0 mm 0 W/m2
20:41 6.5 °C 6.2 °C 1021.9 hPa NW 7.2 km/h 11.1 km/h 98% 0.0 mm 0 W/m2
20:46 6.5 °C 6.2 °C 1021.9 hPa NW 7.2 km/h 12.2 km/h 98% 0.0 mm 0 W/m2
20:51 6.6 °C 6.3 °C 1021.9 hPa NNW 7.2 km/h 12.2 km/h 98% 0.0 mm 0 W/m2
20:56 6.6 °C 6.3 °C 1021.9 hPa NNW 6.1 km/h 12.2 km/h 98% 0.0 mm 0 W/m2
21:00 6.6 °C 6.3 °C 1021.9 hPa NNW 7.2 km/h 12.2 km/h 98% 0.0 mm 0 W/m2
21:06 6.6 °C 6.3 °C 1021.9 hPa NNW 8.7 km/h 12.2 km/h 98% 0.0 mm 0 W/m2
21:11 6.6 °C 6.3 °C 1021.9 hPa NW 7.2 km/h 12.2 km/h 98% 0.0 mm 0 W/m2
21:16 6.6 °C 6.3 °C 1022.2 hPa NNW 8.7 km/h 12.2 km/h 98% 0.0 mm 0 W/m2
21:21 6.6 °C 6.3 °C 1022.2 hPa NNW 6.1 km/h 12.2 km/h 98% 0.0 mm 0 W/m2
21:26 6.5 °C 6.2 °C 1022.2 hPa NNW 7.2 km/h 12.2 km/h 98% 0.0 mm 0 W/m2
21:31 6.4 °C 6.1 °C 1022.2 hPa NNW 6.1 km/h 11.1 km/h 98% 0.0 mm 0 W/m2
21:36 6.2 °C 5.9 °C 1022.2 hPa NW 5.0 km/h 11.1 km/h 98% 0.0 mm 0 W/m2
21:40 6.1 °C 5.8 °C 1022.2 hPa NNW 6.1 km/h 9.7 km/h 98% 0.0 mm 0 W/m2
21:46 6.1 °C 5.8 °C 1022.2 hPa NNW 6.1 km/h 8.7 km/h 98% 0.0 mm 0 W/m2
21:51 6.0 °C 5.7 °C 1021.9 hPa NNW 6.1 km/h 9.7 km/h 98% 0.0 mm 0 W/m2
21:56 6.0 °C 5.7 °C 1022.2 hPa NNW 5.0 km/h 9.7 km/h 98% 0.0 mm 0 W/m2
22:00 6.0 °C 5.7 °C 1021.9 hPa NNW 5.0 km/h 8.7 km/h 98% 0.0 mm 0 W/m2
22:06 5.9 °C 5.8 °C 1021.9 hPa NNW 5.0 km/h 8.7 km/h 99% 0.0 mm 0 W/m2
22:12 5.9 °C 5.8 °C 1021.9 hPa NW 5.0 km/h 7.2 km/h 99% 0.0 mm 0 W/m2
22:17 5.9 °C 5.8 °C 1021.9 hPa NW 5.0 km/h 9.7 km/h 99% 0.0 mm 0 W/m2
22:22 5.8 °C 5.7 °C 1021.9 hPa NNW 5.0 km/h 9.7 km/h 99% 0.0 mm 0 W/m2
22:27 5.7 °C 5.6 °C 1021.9 hPa NW 5.0 km/h 9.7 km/h 99% 0.0 mm 0 W/m2
22:32 5.8 °C 5.7 °C 1021.9 hPa NW 8.7 km/h 13.4 km/h 99% 0.0 mm 0 W/m2
22:37 5.9 °C 5.8 °C 1021.9 hPa NNW 6.1 km/h 14.8 km/h 99% 0.0 mm 0 W/m2
22:42 5.9 °C 5.8 °C 1021.9 hPa NNW 8.7 km/h 14.8 km/h 99% 0.0 mm 0 W/m2
22:47 5.9 °C 5.8 °C 1021.6 hPa NNW 6.1 km/h 14.8 km/h 99% 0.0 mm 0 W/m2
22:52 5.9 °C 5.8 °C 1021.6 hPa NNW 6.1 km/h 9.7 km/h 99% 0.0 mm 0 W/m2
22:57 5.7 °C 5.6 °C 1021.6 hPa NNW 6.1 km/h 9.7 km/h 99% 0.0 mm 0 W/m2
23:02 5.5 °C 5.3 °C 1021.6 hPa NNW 6.1 km/h 11.1 km/h 99% 0.0 mm 0 W/m2
23:08 5.5 °C 5.3 °C 1021.6 hPa NNW 6.1 km/h 12.2 km/h 99% 0.0 mm 0 W/m2
23:13 5.5 °C 5.3 °C 1021.6 hPa NNW 5.0 km/h 12.2 km/h 99% 0.0 mm 0 W/m2
23:18 5.4 °C 5.3 °C 1021.6 hPa NNW 5.0 km/h 8.7 km/h 99% 0.0 mm 0 W/m2
23:23 5.4 °C 5.3 °C 1021.6 hPa North 2.6 km/h 7.2 km/h 99% 0.0 mm 0 W/m2
23:28 5.4 °C 5.3 °C 1021.6 hPa North 5.0 km/h 7.2 km/h 99% 0.0 mm 0 W/m2
23:33 5.5 °C 5.3 °C 1021.6 hPa NNW 5.0 km/h 8.7 km/h 99% 0.0 mm 0 W/m2
23:38 5.5 °C 5.3 °C 1021.6 hPa NNW 5.0 km/h 9.7 km/h 99% 0.0 mm 0 W/m2
23:43 5.6 °C 5.4 °C 1021.6 hPa NNW 6.1 km/h 9.7 km/h 99% 0.0 mm 0 W/m2
23:48 5.6 °C 5.4 °C 1021.2 hPa NNW 6.1 km/h 9.7 km/h 99% 0.0 mm 0 W/m2
23:53 5.7 °C 5.6 °C 1021.6 hPa North 5.0 km/h 12.2 km/h 99% 0.0 mm 0 W/m2
Northern Hawkes Bay. New Zealand Historic Data
Compliments of Weather Underground - 2 mb